Time;durP1;ratioP1;P1;durP2;ratioP2;P2;SDS_P1;SDS_P2;PMS_P1;PMS_P2;Temp;Humidity;BMP_temperature;BMP_pressure;BME280_temperature;BME280_humidity;BME280_pressure;Samples;Min_cycle;Max_cycle;Signal;HPM_P1;HPM_P2
2022/01/20 00:03:11;;;;;;;13.83;3.33;;;;;;;;;;6065822;29;20234;-64
2022/01/20 00:28:42;;;;;;;14.60;5.83;;;;;;;;;;6075776;29;20239;-64
2022/01/20 00:32:08;;;;;;;12.67;4.07;;;;;;;;;;6085783;28;20235;-64
2022/01/20 00:35:31;;;;;;;16.60;5.00;;;;;;;;;;6075871;28;20236;-65
2022/01/20 00:38:52;;;;;;;12.13;4.00;;;;;;;;;;6071162;29;20232;-64
2022/01/20 00:42:13;;;;;;;13.40;4.07;;;;;;;;;;6089122;28;20259;-63
2022/01/20 00:45:33;;;;;;;16.30;5.10;;;;;;;;;;6065985;29;20880;-63
2022/01/20 00:48:55;;;;;;;19.30;4.40;;;;;;;;;;6078965;29;20240;-64
2022/01/20 00:52:16;;;;;;;14.67;5.37;;;;;;;;;;6097796;29;20224;-63
2022/01/20 00:55:38;;;;;;;12.23;4.27;;;;;;;;;;6087673;29;20232;-64
2022/01/20 00:58:59;;;;;;;24.00;5.03;;;;;;;;;;6087058;29;20232;-64
2022/01/20 01:02:21;;;;;;;17.77;5.73;;;;;;;;;;6086128;29;20245;-64
2022/01/20 01:05:57;;;;;;;19.90;5.47;;;;;;;;;;6087959;29;20438;-65
2022/01/20 01:09:18;;;;;;;12.37;4.53;;;;;;;;;;6090540;29;20236;-64
2022/01/20 01:12:45;;;;;;;19.57;4.80;;;;;;;;;;6078866;29;20233;-64
2022/01/20 01:16:09;;;;;;;14.33;4.60;;;;;;;;;;6087532;29;20229;-63
2022/01/20 01:23:09;;;;;;;17.07;5.73;;;;;;;;;;6086933;29;20232;-63
2022/01/20 01:26:30;;;;;;;12.40;4.33;;;;;;;;;;6078440;29;20248;-64
2022/01/20 01:30:07;;;;;;;15.53;4.37;;;;;;;;;;6100048;28;20241;-64
2022/01/20 01:33:29;;;;;;;12.23;3.57;;;;;;;;;;6062585;29;20241;-64
2022/01/20 01:37:04;;;;;;;6.97;2.43;;;;;;;;;;6097005;29;20233;-64
2022/01/20 01:40:29;;;;;;;8.63;2.80;;;;;;;;;;6088180;29;20225;-63
2022/01/20 01:43:50;;;;;;;7.23;2.10;;;;;;;;;;6100247;28;20236;-64
2022/01/20 01:47:11;;;;;;;8.20;4.03;;;;;;;;;;6097554;29;20232;-65
2022/01/20 01:50:32;;;;;;;5.53;2.63;;;;;;;;;;6087221;29;20595;-64
2022/01/20 01:53:52;;;;;;;6.37;1.83;;;;;;;;;;6087066;29;21051;-63
2022/01/20 01:57:15;;;;;;;10.30;2.20;;;;;;;;;;6076198;28;20232;-63
2022/01/20 02:00:37;;;;;;;10.30;2.50;;;;;;;;;;6076500;29;20236;-62
2022/01/20 02:04:08;;;;;;;8.40;2.53;;;;;;;;;;6079265;29;20236;-64
2022/01/20 02:08:02;;;;;;;6.40;2.47;;;;;;;;;;6099495;28;20224;-64
2022/01/20 02:18:51;;;;;;;6.07;2.00;;;;;;;;;;6093622;28;20244;-63
2022/01/20 02:22:32;;;;;;;7.43;2.07;;;;;;;;;;6077722;28;20237;-65
2022/01/20 02:26:08;;;;;;;8.00;2.47;;;;;;;;;;6097775;29;20237;-64
2022/01/20 02:29:29;;;;;;;8.37;2.37;;;;;;;;;;6085794;28;20626;-64
2022/01/20 02:32:53;;;;;;;8.10;3.27;;;;;;;;;;6094326;29;20509;-64
2022/01/20 02:36:16;;;;;;;9.73;2.43;;;;;;;;;;6061578;29;20233;-64
2022/01/20 02:40:03;;;;;;;9.23;1.87;;;;;;;;;;6078119;29;20236;-64
2022/01/20 02:47:02;;;;;;;9.67;3.23;;;;;;;;;;6068055;29;20241;-63
2022/01/20 02:50:23;;;;;;;11.87;4.20;;;;;;;;;;6086438;29;20332;-65
2022/01/20 02:53:43;;;;;;;8.80;3.17;;;;;;;;;;6084707;29;20546;-63
2022/01/20 02:57:06;;;;;;;10.30;3.70;;;;;;;;;;6098623;28;20232;-66
2022/01/20 03:00:27;;;;;;;9.80;3.17;;;;;;;;;;6083779;29;20325;-64
2022/01/20 03:03:47;;;;;;;9.40;4.00;;;;;;;;;;6096330;29;21135;-66
2022/01/20 03:07:08;;;;;;;11.83;3.60;;;;;;;;;;6083346;29;20236;-64
2022/01/20 03:10:29;;;;;;;10.40;5.17;;;;;;;;;;6085326;29;20236;-63
2022/01/20 03:13:51;;;;;;;16.10;3.97;;;;;;;;;;6084770;29;20682;-64
2022/01/20 03:17:14;;;;;;;11.63;2.93;;;;;;;;;;6083593;29;20251;-64
2022/01/20 03:20:35;;;;;;;21.10;3.77;;;;;;;;;;6065312;29;20261;-64
2022/01/20 03:23:56;;;;;;;14.67;4.27;;;;;;;;;;6083104;29;20598;-63
2022/01/20 03:27:17;;;;;;;12.33;3.83;;;;;;;;;;6095030;29;20232;-64
2022/01/20 03:30:40;;;;;;;9.13;3.00;;;;;;;;;;6095952;29;20260;-65
2022/01/20 03:34:01;;;;;;;12.77;2.63;;;;;;;;;;6075062;29;21100;-62
2022/01/20 03:37:22;;;;;;;11.33;3.47;;;;;;;;;;6090582;28;20228;-64
2022/01/20 03:40:51;;;;;;;10.13;4.23;;;;;;;;;;6084411;29;20606;-65
2022/01/20 03:44:11;;;;;;;10.47;3.20;;;;;;;;;;6084084;29;20236;-65
2022/01/20 03:47:34;;;;;;;12.90;3.53;;;;;;;;;;6080877;28;20336;-64
2022/01/20 03:51:00;;;;;;;11.07;2.87;;;;;;;;;;6067996;29;20610;-64
2022/01/20 03:54:24;;;;;;;10.67;3.63;;;;;;;;;;6061252;29;20615;-64
2022/01/20 03:58:03;;;;;;;10.47;3.50;;;;;;;;;;6079856;29;20240;-65
2022/01/20 04:01:25;;;;;;;4.53;2.17;;;;;;;;;;6070719;29;20329;-64
2022/01/20 04:05:18;;;;;;;8.77;2.70;;;;;;;;;;6077814;29;20232;-63
2022/01/20 04:08:58;;;;;;;7.80;2.53;;;;;;;;;;6085150;29;20249;-64
2022/01/20 04:12:18;;;;;;;9.37;3.23;;;;;;;;;;6090075;29;20264;-64
2022/01/20 04:15:40;;;;;;;10.57;3.03;;;;;;;;;;6073592;29;20229;-64
2022/01/20 04:19:03;;;;;;;8.40;2.57;;;;;;;;;;6083217;28;20245;-63
2022/01/20 04:22:26;;;;;;;11.37;3.60;;;;;;;;;;6079328;28;20320;-63
2022/01/20 04:25:47;;;;;;;7.10;3.33;;;;;;;;;;6086172;29;20224;-65
2022/01/20 04:29:09;;;;;;;11.00;3.23;;;;;;;;;;6085316;29;20236;-65
2022/01/20 04:32:29;;;;;;;10.73;2.90;;;;;;;;;;6086180;28;20241;-64
2022/01/20 04:35:50;;;;;;;8.10;3.00;;;;;;;;;;6088580;29;20265;-64
2022/01/20 04:39:15;;;;;;;7.90;2.37;;;;;;;;;;6088653;29;20613;-64
2022/01/20 04:42:38;;;;;;;10.23;2.97;;;;;;;;;;6099781;29;20614;-62
2022/01/20 04:46:05;;;;;;;10.87;2.77;;;;;;;;;;6086667;29;20241;-64
2022/01/20 04:57:16;;;;;;;10.87;3.27;;;;;;;;;;6100301;29;20236;-63
2022/01/20 05:00:37;;;;;;;14.83;3.30;;;;;;;;;;6097855;29;20243;-64
2022/01/20 05:04:16;;;;;;;6.90;2.60;;;;;;;;;;6084330;29;20237;-64
2022/01/20 05:07:58;;;;;;;11.00;3.40;;;;;;;;;;6105081;28;20240;-64
2022/01/20 05:11:19;;;;;;;14.70;5.03;;;;;;;;;;6085990;28;20599;-65
2022/01/20 05:14:41;;;;;;;11.40;2.90;;;;;;;;;;6084704;29;20683;-64
2022/01/20 05:18:02;;;;;;;11.40;3.27;;;;;;;;;;6096341;29;20240;-64
2022/01/20 05:21:24;;;;;;;12.10;4.43;;;;;;;;;;6105385;29;20232;-63
2022/01/20 05:24:45;;;;;;;3.80;2.37;;;;;;;;;;6100826;29;20272;-64
2022/01/20 05:28:06;;;;;;;13.60;3.87;;;;;;;;;;6100822;29;20795;-63
2022/01/20 05:31:28;;;;;;;10.47;3.03;;;;;;;;;;6094305;29;20260;-63
2022/01/20 05:34:48;;;;;;;7.70;2.70;;;;;;;;;;6090818;28;20244;-63
2022/01/20 05:38:11;;;;;;;13.00;3.53;;;;;;;;;;6085442;29;20233;-65
2022/01/20 05:41:32;;;;;;;13.70;4.47;;;;;;;;;;6100324;29;20236;-63
2022/01/20 05:45:00;;;;;;;15.97;4.03;;;;;;;;;;6086830;29;20227;-64
2022/01/20 05:48:32;;;;;;;12.63;4.07;;;;;;;;;;6088154;29;20233;-63
2022/01/20 05:52:15;;;;;;;10.10;3.20;;;;;;;;;;6085200;28;20225;-63
2022/01/20 05:55:36;;;;;;;7.63;3.80;;;;;;;;;;6083344;29;20695;-65
2022/01/20 05:58:57;;;;;;;10.30;3.27;;;;;;;;;;6097417;29;20224;-64
2022/01/20 06:02:33;;;;;;;13.53;4.10;;;;;;;;;;6083486;28;20686;-64
2022/01/20 06:05:55;;;;;;;12.53;4.60;;;;;;;;;;6100584;28;20229;-64
2022/01/20 06:09:16;;;;;;;10.13;3.57;;;;;;;;;;6085012;28;20225;-63
2022/01/20 06:12:36;;;;;;;16.47;6.57;;;;;;;;;;6081807;29;20611;-64
2022/01/20 06:15:57;;;;;;;9.70;3.80;;;;;;;;;;6064078;29;20237;-65
2022/01/20 06:19:17;;;;;;;20.87;5.23;;;;;;;;;;6098185;28;20244;-63
2022/01/20 06:22:40;;;;;;;10.90;4.17;;;;;;;;;;6085283;29;20300;-64
2022/01/20 06:26:05;;;;;;;22.33;5.97;;;;;;;;;;6096682;28;20256;-63
2022/01/20 06:29:26;;;;;;;14.17;4.07;;;;;;;;;;6080140;29;20600;-63
2022/01/20 06:32:47;;;;;;;5.97;3.13;;;;;;;;;;6084089;29;20229;-63
2022/01/20 06:36:18;;;;;;;11.57;3.97;;;;;;;;;;6099699;29;20227;-64
2022/01/20 06:39:40;;;;;;;14.70;4.57;;;;;;;;;;6095167;29;20595;-63
2022/01/20 06:43:02;;;;;;;15.33;3.97;;;;;;;;;;6080427;29;20241;-64
2022/01/20 06:46:23;;;;;;;19.23;4.60;;;;;;;;;;6087741;29;20240;-63
2022/01/20 06:49:59;;;;;;;16.90;4.37;;;;;;;;;;6080008;29;20287;-64
2022/01/20 06:53:20;;;;;;;12.70;4.90;;;;;;;;;;6096258;29;20228;-64
2022/01/20 06:56:42;;;;;;;10.60;4.10;;;;;;;;;;6074348;29;20233;-64
2022/01/20 07:00:07;;;;;;;17.60;5.17;;;;;;;;;;6078699;29;20248;-64
2022/01/20 07:03:29;;;;;;;14.40;4.67;;;;;;;;;;6071322;29;20360;-66
2022/01/20 07:06:50;;;;;;;14.13;4.33;;;;;;;;;;6089769;29;20240;-63
2022/01/20 07:10:29;;;;;;;10.77;3.87;;;;;;;;;;6087244;29;20300;-64
2022/01/20 07:13:52;;;;;;;14.43;5.30;;;;;;;;;;6099643;29;20516;-63
2022/01/20 07:17:14;;;;;;;13.47;4.57;;;;;;;;;;6084671;28;20256;-62
2022/01/20 07:20:39;;;;;;;11.30;5.50;;;;;;;;;;6096431;28;20397;-65
2022/01/20 07:24:07;;;;;;;15.03;4.60;;;;;;;;;;6085681;28;20251;-64
2022/01/20 07:27:28;;;;;;;14.57;4.27;;;;;;;;;;6080962;29;20228;-64
2022/01/20 07:30:50;;;;;;;14.13;4.97;;;;;;;;;;6076279;29;20236;-65
2022/01/20 07:34:12;;;;;;;18.10;4.33;;;;;;;;;;6084918;29;20319;-64
2022/01/20 07:37:32;;;;;;;12.77;5.67;;;;;;;;;;6084992;29;20518;-64
2022/01/20 07:40:53;;;;;;;17.73;4.30;;;;;;;;;;6094482;29;20322;-64
2022/01/20 07:44:17;;;;;;;14.60;3.97;;;;;;;;;;6080727;28;20330;-64
2022/01/20 07:47:59;;;;;;;12.57;3.87;;;;;;;;;;6079064;28;20236;-64
2022/01/20 07:51:20;;;;;;;13.57;4.73;;;;;;;;;;6082918;29;20653;-63
2022/01/20 07:54:41;;;;;;;16.03;5.40;;;;;;;;;;6078834;29;20235;-65
2022/01/20 07:58:01;;;;;;;14.37;3.47;;;;;;;;;;6083909;29;20236;-64
2022/01/20 08:01:29;;;;;;;13.93;4.07;;;;;;;;;;6092284;29;20311;-64
2022/01/20 08:04:56;;;;;;;11.70;3.83;;;;;;;;;;6078389;28;20235;-65
2022/01/20 08:08:16;;;;;;;12.40;3.90;;;;;;;;;;6099412;29;20240;-65
2022/01/20 08:11:44;;;;;;;11.73;5.57;;;;;;;;;;6076201;29;20237;-66
2022/01/20 08:15:30;;;;;;;16.43;3.77;;;;;;;;;;6085187;28;20237;-66
2022/01/20 08:18:57;;;;;;;13.87;3.70;;;;;;;;;;6098232;28;20661;-66
2022/01/20 08:22:19;;;;;;;8.50;2.87;;;;;;;;;;6082894;29;20232;-65
2022/01/20 08:25:40;;;;;;;10.40;3.43;;;;;;;;;;6088915;29;20800;-64
2022/01/20 08:29:01;;;;;;;9.90;4.00;;;;;;;;;;6101310;28;20256;-65
2022/01/20 08:32:21;;;;;;;6.47;2.60;;;;;;;;;;6070637;29;20340;-66
2022/01/20 08:35:51;;;;;;;8.60;2.73;;;;;;;;;;6096354;29;20237;-65
2022/01/20 08:39:32;;;;;;;10.87;4.03;;;;;;;;;;6078074;28;20248;-64
2022/01/20 08:42:54;;;;;;;9.87;2.73;;;;;;;;;;6090554;29;20241;-67
2022/01/20 08:46:19;;;;;;;8.93;4.23;;;;;;;;;;6087040;28;20236;-66
2022/01/20 08:49:40;;;;;;;10.33;3.43;;;;;;;;;;6094527;28;20256;-65
2022/01/20 08:53:01;;;;;;;5.43;3.00;;;;;;;;;;6092848;29;20240;-64
2022/01/20 08:56:23;;;;;;;8.47;3.27;;;;;;;;;;6083526;28;20236;-66
2022/01/20 08:59:44;;;;;;;9.70;3.43;;;;;;;;;;6065397;29;20241;-63
2022/01/20 09:03:05;;;;;;;11.17;3.77;;;;;;;;;;6079146;28;20248;-63
2022/01/20 09:06:27;;;;;;;5.73;2.90;;;;;;;;;;6096281;29;20228;-62
2022/01/20 09:10:00;;;;;;;10.97;4.27;;;;;;;;;;6090267;28;20271;-64
2022/01/20 09:17:01;;;;;;;13.07;4.93;;;;;;;;;;6085288;29;20236;-64
2022/01/20 09:20:24;;;;;;;10.57;3.83;;;;;;;;;;6084247;28;20236;-64
2022/01/20 09:23:45;;;;;;;12.70;4.43;;;;;;;;;;6087549;29;20240;-64
2022/01/20 09:27:06;;;;;;;10.17;3.60;;;;;;;;;;6088524;29;20240;-64
2022/01/20 09:30:28;;;;;;;8.00;4.13;;;;;;;;;;6094136;28;20244;-63
2022/01/20 09:33:49;;;;;;;3.83;1.90;;;;;;;;;;6064403;29;20509;-62
2022/01/20 09:37:13;;;;;;;6.17;2.27;;;;;;;;;;6090974;28;20595;-65
2022/01/20 09:40:38;;;;;;;5.53;2.37;;;;;;;;;;6087839;29;20240;-66
2022/01/20 09:44:00;;;;;;;9.57;3.17;;;;;;;;;;6087790;28;20229;-64
2022/01/20 09:47:24;;;;;;;4.13;1.70;;;;;;;;;;6067752;29;20236;-64
2022/01/20 09:51:03;;;;;;;8.23;2.33;;;;;;;;;;6082335;29;20236;-64
2022/01/20 09:54:43;;;;;;;7.77;1.97;;;;;;;;;;6067825;29;20228;-64
2022/01/20 09:58:10;;;;;;;4.53;2.70;;;;;;;;;;6059936;29;20237;-64
2022/01/20 10:01:35;;;;;;;5.03;2.37;;;;;;;;;;6056177;29;20240;-64
2022/01/20 10:04:57;;;;;;;13.53;2.30;;;;;;;;;;6071660;29;20236;-64
2022/01/20 10:08:22;;;;;;;9.83;2.83;;;;;;;;;;6074530;29;20233;-62
2022/01/20 10:12:07;;;;;;;9.10;2.83;;;;;;;;;;6095879;28;20240;-64
2022/01/20 10:16:04;;;;;;;12.20;3.43;;;;;;;;;;6096158;29;20324;-63
2022/01/20 10:19:43;;;;;;;5.03;3.23;;;;;;;;;;6099608;28;22915;-64
2022/01/20 10:23:15;;;;;;;6.20;3.13;;;;;;;;;;6103518;28;20626;-63
2022/01/20 10:26:59;;;;;;;9.53;4.90;;;;;;;;;;6101547;28;20232;-64
2022/01/20 10:30:22;;;;;;;7.37;2.80;;;;;;;;;;6068289;29;20237;-65
2022/01/20 10:33:44;;;;;;;7.57;1.63;;;;;;;;;;6084269;29;20228;-64
2022/01/20 10:37:07;;;;;;;3.63;1.53;;;;;;;;;;6110895;28;20240;-64
2022/01/20 10:40:33;;;;;;;2.87;1.63;;;;;;;;;;6110364;28;20312;-63
2022/01/20 10:44:06;;;;;;;5.00;1.83;;;;;;;;;;6084281;28;20516;-62
2022/01/20 10:47:36;;;;;;;5.80;2.37;;;;;;;;;;6096231;28;20343;-63
2022/01/20 10:50:57;;;;;;;3.97;1.63;;;;;;;;;;6086031;29;20324;-64
2022/01/20 10:54:18;;;;;;;1.37;1.27;;;;;;;;;;6110406;28;20629;-64
2022/01/20 10:57:41;;;;;;;2.37;0.93;;;;;;;;;;6085187;29;20241;-64
2022/01/20 11:01:04;;;;;;;3.33;2.10;;;;;;;;;;6084476;28;20331;-64
2022/01/20 11:04:25;;;;;;;4.00;1.70;;;;;;;;;;6066226;29;20241;-64
2022/01/20 11:07:46;;;;;;;6.13;2.10;;;;;;;;;;6069397;29;20835;-63
2022/01/20 11:11:07;;;;;;;5.05;1.85;;;;;;;;;;6074785;29;20311;-64
2022/01/20 11:14:53;;;;;;;4.93;1.88;;;;;;;;;;6086714;29;20347;-64
2022/01/20 11:18:14;;;;;;;11.13;4.65;;;;;;;;;;6094327;28;20237;-65
2022/01/20 11:21:36;;;;;;;7.20;2.28;;;;;;;;;;6089818;28;20252;-65
2022/01/20 11:24:57;;;;;;;6.07;2.47;;;;;;;;;;6088518;29;20349;-64
2022/01/20 11:28:29;;;;;;;7.43;2.35;;;;;;;;;;6102874;29;20311;-63
2022/01/20 11:31:59;;;;;;;4.80;2.15;;;;;;;;;;6089832;28;20307;-64
2022/01/20 11:35:45;;;;;;;7.25;2.63;;;;;;;;;;6071985;29;20258;-64
2022/01/20 11:39:06;;;;;;;8.55;1.95;;;;;;;;;;6068318;28;20550;-64
2022/01/20 11:42:26;;;;;;;5.40;2.38;;;;;;;;;;6068662;29;20244;-64
2022/01/20 11:45:50;;;;;;;4.95;1.92;;;;;;;;;;6068194;29;20260;-65
2022/01/20 11:49:13;;;;;;;4.97;3.00;;;;;;;;;;6065540;29;20236;-64
2022/01/20 11:52:33;;;;;;;4.53;1.93;;;;;;;;;;6071403;29;20237;-69
2022/01/20 11:55:55;;;;;;;5.47;1.80;;;;;;;;;;6069148;29;20228;-70
2022/01/20 11:59:16;;;;;;;6.13;2.63;;;;;;;;;;6065561;28;20358;-70
2022/01/20 12:02:38;;;;;;;5.37;2.40;;;;;;;;;;6074406;29;20331;-70
2022/01/20 12:06:09;;;;;;;9.60;2.43;;;;;;;;;;6077488;28;20243;-63
2022/01/20 12:10:05;;;;;;;7.77;2.27;;;;;;;;;;6092244;28;20262;-62
2022/01/20 12:13:25;;;;;;;6.73;2.73;;;;;;;;;;6086782;29;20228;-63
2022/01/20 12:16:46;;;;;;;9.37;3.53;;;;;;;;;;6089153;28;20232;-63
2022/01/20 12:20:07;;;;;;;4.87;3.37;;;;;;;;;;6084994;29;20229;-62
2022/01/20 12:23:29;;;;;;;5.50;2.47;;;;;;;;;;6081874;29;20236;-62
2022/01/20 12:26:50;;;;;;;8.43;2.57;;;;;;;;;;6073466;29;20647;-63
2022/01/20 12:30:17;;;;;;;4.80;2.10;;;;;;;;;;6065980;29;20242;-62
2022/01/20 12:33:42;;;;;;;6.47;1.90;;;;;;;;;;6084940;28;20579;-62
2022/01/20 12:37:03;;;;;;;10.53;4.50;;;;;;;;;;6097585;29;20331;-62
2022/01/20 12:40:25;;;;;;;17.37;2.97;;;;;;;;;;6081165;28;20385;-63
2022/01/20 12:43:47;;;;;;;5.73;2.63;;;;;;;;;;6083360;28;20821;-62
2022/01/20 12:47:08;;;;;;;9.23;3.30;;;;;;;;;;6073153;29;20243;-64
2022/01/20 12:50:29;;;;;;;7.10;3.10;;;;;;;;;;6074846;29;20240;-64
2022/01/20 12:53:55;;;;;;;6.17;2.27;;;;;;;;;;6090984;28;20240;-64
2022/01/20 12:57:18;;;;;;;7.40;2.50;;;;;;;;;;6091832;29;20245;-65
2022/01/20 13:00:38;;;;;;;7.77;3.17;;;;;;;;;;6088214;29;20312;-64
2022/01/20 13:03:59;;;;;;;7.97;3.33;;;;;;;;;;6075063;29;20324;-64
2022/01/20 13:07:19;;;;;;;4.20;1.80;;;;;;;;;;6090049;28;20329;-63
2022/01/20 13:10:42;;;;;;;5.87;2.03;;;;;;;;;;6094331;29;20634;-64
2022/01/20 13:14:05;;;;;;;5.10;1.63;;;;;;;;;;6094045;28;20339;-64
2022/01/20 13:17:27;;;;;;;5.40;1.90;;;;;;;;;;6082437;28;20615;-64
2022/01/20 13:20:53;;;;;;;4.40;1.87;;;;;;;;;;6097206;29;20861;-63
2022/01/20 13:24:17;;;;;;;5.27;1.60;;;;;;;;;;6094122;29;20666;-63
2022/01/20 13:27:38;;;;;;;3.23;1.53;;;;;;;;;;6085343;29;22012;-65
2022/01/20 13:31:12;;;;;;;6.90;2.17;;;;;;;;;;6090674;29;20812;-64
2022/01/20 13:34:32;;;;;;;5.40;1.23;;;;;;;;;;6085917;28;20522;-64
2022/01/20 13:37:57;;;;;;;7.07;1.87;;;;;;;;;;6099304;29;20245;-64
2022/01/20 13:41:20;;;;;;;4.33;2.07;;;;;;;;;;6092808;29;20232;-63
2022/01/20 13:48:27;;;;;;;4.43;1.40;;;;;;;;;;6073570;29;20229;-64
2022/01/20 13:51:47;;;;;;;5.43;3.03;;;;;;;;;;6081312;29;20232;-65
2022/01/20 13:55:17;;;;;;;4.47;2.17;;;;;;;;;;6096436;29;20252;-65
2022/01/20 13:58:38;;;;;;;4.93;1.47;;;;;;;;;;6098047;29;20240;-65
2022/01/20 14:01:58;;;;;;;8.03;2.07;;;;;;;;;;6095036;29;20263;-65
2022/01/20 14:05:21;;;;;;;7.40;2.53;;;;;;;;;;6071964;28;20613;-65
2022/01/20 14:08:42;;;;;;;3.30;1.20;;;;;;;;;;6082937;29;20634;-64
2022/01/20 14:12:03;;;;;;;3.33;1.83;;;;;;;;;;6090593;28;20225;-63
2022/01/20 14:15:25;;;;;;;3.13;1.37;;;;;;;;;;6095128;28;20250;-64
2022/01/20 14:18:48;;;;;;;5.23;1.97;;;;;;;;;;6091942;29;20319;-64
2022/01/20 14:22:10;;;;;;;4.30;2.67;;;;;;;;;;6095291;29;20244;-64
2022/01/20 14:25:31;;;;;;;8.00;3.53;;;;;;;;;;6090481;29;20225;-66
2022/01/20 14:28:51;;;;;;;7.70;3.37;;;;;;;;;;6084513;29;20237;-64
2022/01/20 14:32:12;;;;;;;9.40;3.53;;;;;;;;;;6072334;29;20694;-64
2022/01/20 14:35:33;;;;;;;4.93;2.23;;;;;;;;;;6081104;28;20233;-65
2022/01/20 14:38:54;;;;;;;6.23;2.13;;;;;;;;;;6081691;29;20237;-65
2022/01/20 14:42:15;;;;;;;6.53;2.13;;;;;;;;;;6079780;29;20241;-65
2022/01/20 14:45:36;;;;;;;6.17;2.00;;;;;;;;;;6083656;29;20233;-64
2022/01/20 14:48:57;;;;;;;7.40;2.27;;;;;;;;;;6073645;29;20236;-66
2022/01/20 14:52:17;;;;;;;6.30;2.10;;;;;;;;;;6074295;29;20240;-64
2022/01/20 14:55:41;;;;;;;6.23;1.97;;;;;;;;;;6088578;29;20335;-64
2022/01/20 14:59:02;;;;;;;11.63;6.37;;;;;;;;;;6071364;29;20519;-65
2022/01/20 15:02:22;;;;;;;7.30;2.10;;;;;;;;;;6080847;28;20237;-64
2022/01/20 15:05:45;;;;;;;6.87;2.03;;;;;;;;;;6066775;29;20615;-65
2022/01/20 15:09:06;;;;;;;7.30;1.93;;;;;;;;;;6081671;29;20230;-64
2022/01/20 15:12:28;;;;;;;5.37;2.30;;;;;;;;;;6086543;29;20225;-64
2022/01/20 15:15:48;;;;;;;3.80;1.60;;;;;;;;;;6081083;29;20228;-65
2022/01/20 15:19:09;;;;;;;6.60;5.30;;;;;;;;;;6092088;28;20252;-64
2022/01/20 15:22:30;;;;;;;9.93;6.00;;;;;;;;;;6064980;29;20237;-65
2022/01/20 15:25:51;;;;;;;8.47;2.30;;;;;;;;;;6059996;29;20233;-64
2022/01/20 15:29:15;;;;;;;16.20;4.10;;;;;;;;;;6073385;29;21887;-65
2022/01/20 15:32:35;;;;;;;7.00;2.83;;;;;;;;;;6070883;28;20618;-64
2022/01/20 15:35:56;;;;;;;8.37;2.27;;;;;;;;;;6069849;28;20236;-64
2022/01/20 15:39:17;;;;;;;23.57;15.40;;;;;;;;;;6071222;29;20228;-63
2022/01/20 15:42:37;;;;;;;5.20;3.20;;;;;;;;;;6070342;29;20241;-64
2022/01/20 15:45:59;;;;;;;7.27;2.70;;;;;;;;;;6096771;28;20324;-63
2022/01/20 15:49:20;;;;;;;6.60;2.77;;;;;;;;;;6088508;28;20496;-64
2022/01/20 15:52:41;;;;;;;6.50;2.00;;;;;;;;;;6091510;28;20236;-63
2022/01/20 15:56:01;;;;;;;11.00;3.73;;;;;;;;;;6088359;29;20327;-63
2022/01/20 15:59:23;;;;;;;9.47;5.80;;;;;;;;;;6079246;29;20245;-64
2022/01/20 16:02:45;;;;;;;8.73;4.00;;;;;;;;;;6087134;28;20331;-64
2022/01/20 16:06:05;;;;;;;4.67;2.27;;;;;;;;;;6068382;29;20256;-63
2022/01/20 16:09:26;;;;;;;10.57;7.20;;;;;;;;;;6083513;29;20385;-63
2022/01/20 16:12:47;;;;;;;10.37;4.90;;;;;;;;;;6071737;28;20240;-64
2022/01/20 16:16:09;;;;;;;6.80;2.50;;;;;;;;;;6074009;28;20241;-63
2022/01/20 16:19:31;;;;;;;7.57;2.97;;;;;;;;;;6068684;28;20237;-64
2022/01/20 16:22:51;;;;;;;6.33;3.00;;;;;;;;;;6075774;28;20240;-65
2022/01/20 16:26:12;;;;;;;13.13;9.97;;;;;;;;;;6076460;28;20240;-64
2022/01/20 16:29:33;;;;;;;4.83;2.73;;;;;;;;;;6075788;28;20236;-64
2022/01/20 16:32:54;;;;;;;5.83;2.47;;;;;;;;;;6071851;29;20603;-64
2022/01/20 16:36:16;;;;;;;9.17;2.97;;;;;;;;;;6075072;29;20528;-65
2022/01/20 16:39:37;;;;;;;5.47;3.10;;;;;;;;;;6084452;28;20251;-63
2022/01/20 16:43:00;;;;;;;6.30;2.87;;;;;;;;;;6086895;29;20263;-64
2022/01/20 16:46:20;;;;;;;4.37;2.20;;;;;;;;;;6093385;29;20576;-63
2022/01/20 16:49:41;;;;;;;5.20;1.97;;;;;;;;;;6097251;29;20603;-64
2022/01/20 16:53:03;;;;;;;4.03;2.07;;;;;;;;;;6091761;28;20260;-64
2022/01/20 16:56:24;;;;;;;3.83;2.07;;;;;;;;;;6082602;29;20244;-64
2022/01/20 16:59:44;;;;;;;5.63;2.33;;;;;;;;;;6080536;29;20236;-64
2022/01/20 17:03:12;;;;;;;3.47;2.90;;;;;;;;;;6093578;29;20243;-64
2022/01/20 17:06:33;;;;;;;4.63;1.80;;;;;;;;;;6081069;28;20229;-64
2022/01/20 17:09:55;;;;;;;3.10;2.40;;;;;;;;;;6081231;29;20236;-64
2022/01/20 17:13:16;;;;;;;3.17;1.90;;;;;;;;;;6093689;28;20319;-63
2022/01/20 17:16:37;;;;;;;6.30;2.30;;;;;;;;;;6094179;28;21823;-63
2022/01/20 17:19:57;;;;;;;3.67;1.77;;;;;;;;;;6092674;28;20558;-63
2022/01/20 17:23:18;;;;;;;5.47;3.10;;;;;;;;;;6089249;28;20236;-64
2022/01/20 17:26:43;;;;;;;6.83;2.77;;;;;;;;;;6091041;28;20591;-63
2022/01/20 17:30:04;;;;;;;4.73;2.33;;;;;;;;;;6090277;29;20268;-64
2022/01/20 17:33:25;;;;;;;6.60;1.87;;;;;;;;;;6084244;28;20232;-62
2022/01/20 17:36:45;;;;;;;2.73;2.03;;;;;;;;;;6087078;28;20342;-63
2022/01/20 17:40:06;;;;;;;8.77;2.20;;;;;;;;;;6090017;29;20237;-64
2022/01/20 17:43:29;;;;;;;9.13;2.70;;;;;;;;;;6089470;29;20240;-63
2022/01/20 17:46:49;;;;;;;4.37;1.93;;;;;;;;;;6093104;29;20255;-63
2022/01/20 17:50:11;;;;;;;3.13;2.23;;;;;;;;;;6084084;28;20248;-63
2022/01/20 17:53:32;;;;;;;4.47;1.70;;;;;;;;;;6078905;29;20237;-64
2022/01/20 17:56:53;;;;;;;5.90;2.10;;;;;;;;;;6083940;29;20504;-63
2022/01/20 18:00:16;;;;;;;5.83;1.77;;;;;;;;;;6083982;29;20265;-63
2022/01/20 18:03:37;;;;;;;5.43;2.10;;;;;;;;;;6085025;29;20241;-63
2022/01/20 18:06:57;;;;;;;5.40;1.77;;;;;;;;;;6086801;28;21183;-63
2022/01/20 18:10:18;;;;;;;2.70;1.57;;;;;;;;;;6083503;29;20509;-63
2022/01/20 18:13:38;;;;;;;7.47;2.53;;;;;;;;;;6083626;29;20237;-63
2022/01/20 18:17:00;;;;;;;3.70;1.77;;;;;;;;;;6089852;29;20245;-63
2022/01/20 18:20:21;;;;;;;5.47;2.00;;;;;;;;;;6093610;28;20224;-62
2022/01/20 18:23:41;;;;;;;6.30;2.27;;;;;;;;;;6090494;28;20248;-64
2022/01/20 18:27:02;;;;;;;4.73;2.03;;;;;;;;;;6088791;29;20256;-64
2022/01/20 18:30:22;;;;;;;3.63;1.80;;;;;;;;;;6069239;29;20236;-64
2022/01/20 18:33:45;;;;;;;8.63;2.63;;;;;;;;;;6094676;28;20236;-65
2022/01/20 18:37:05;;;;;;;7.77;2.23;;;;;;;;;;6086872;29;20229;-64
2022/01/20 18:40:26;;;;;;;4.00;2.00;;;;;;;;;;6093751;28;20229;-65
2022/01/20 18:43:47;;;;;;;6.10;2.03;;;;;;;;;;6090796;28;20268;-64
2022/01/20 18:47:07;;;;;;;4.87;2.20;;;;;;;;;;6087547;28;20872;-64
2022/01/20 18:50:29;;;;;;;4.40;1.63;;;;;;;;;;6089073;28;20809;-64
2022/01/20 18:53:49;;;;;;;5.67;1.73;;;;;;;;;;6092573;28;20236;-64
2022/01/20 18:57:10;;;;;;;5.40;2.33;;;;;;;;;;6081766;29;20236;-65
2022/01/20 19:00:31;;;;;;;3.93;1.90;;;;;;;;;;6080931;28;20241;-64
2022/01/20 19:03:52;;;;;;;2.50;1.70;;;;;;;;;;6093163;29;20228;-65
2022/01/20 19:07:14;;;;;;;7.73;1.83;;;;;;;;;;6098356;28;20232;-64
2022/01/20 19:10:35;;;;;;;11.70;2.63;;;;;;;;;;6094383;29;20228;-62
2022/01/20 19:13:55;;;;;;;6.17;2.67;;;;;;;;;;6093558;28;20229;-64
2022/01/20 19:17:16;;;;;;;6.17;2.23;;;;;;;;;;6095034;28;20236;-64
2022/01/20 19:20:36;;;;;;;4.20;1.60;;;;;;;;;;6094214;29;20221;-66
2022/01/20 19:23:58;;;;;;;6.73;2.00;;;;;;;;;;6096125;29;20248;-64
2022/01/20 19:27:21;;;;;;;3.50;2.37;;;;;;;;;;6092665;28;20237;-64
2022/01/20 19:30:42;;;;;;;7.90;3.47;;;;;;;;;;6093051;29;20264;-63
2022/01/20 19:34:03;;;;;;;4.67;1.70;;;;;;;;;;6092759;28;20236;-63
2022/01/20 19:37:24;;;;;;;7.00;1.83;;;;;;;;;;6093845;28;20235;-64
2022/01/20 19:40:46;;;;;;;6.83;2.93;;;;;;;;;;6086621;28;20236;-63
2022/01/20 19:44:07;;;;;;;5.30;1.60;;;;;;;;;;6087168;28;21898;-65
2022/01/20 19:47:27;;;;;;;2.77;1.50;;;;;;;;;;6089371;29;20240;-65
2022/01/20 19:50:48;;;;;;;2.77;1.80;;;;;;;;;;6093932;29;20666;-66
2022/01/20 19:54:09;;;;;;;4.30;1.63;;;;;;;;;;6090627;29;20549;-66
2022/01/20 19:57:31;;;;;;;2.80;1.70;;;;;;;;;;6092964;28;20232;-65
2022/01/20 20:00:52;;;;;;;3.17;1.53;;;;;;;;;;6084323;29;20615;-66
2022/01/20 20:04:12;;;;;;;2.70;1.73;;;;;;;;;;6089736;29;20244;-66
2022/01/20 20:07:33;;;;;;;3.03;2.10;;;;;;;;;;6084907;29;20233;-66
2022/01/20 20:10:53;;;;;;;2.47;1.80;;;;;;;;;;6090982;29;20268;-66
2022/01/20 20:14:16;;;;;;;4.97;1.97;;;;;;;;;;6086991;28;20237;-69
2022/01/20 20:17:38;;;;;;;3.43;1.77;;;;;;;;;;6082452;28;20224;-65
2022/01/20 20:20:58;;;;;;;7.03;2.20;;;;;;;;;;6083911;29;20280;-66
2022/01/20 20:24:21;;;;;;;4.77;3.00;;;;;;;;;;6083931;29;20240;-66
2022/01/20 20:27:42;;;;;;;6.00;2.83;;;;;;;;;;6081660;28;20243;-65
2022/01/20 20:31:04;;;;;;;4.53;3.63;;;;;;;;;;6064667;29;20229;-67
2022/01/20 20:34:24;;;;;;;4.20;2.10;;;;;;;;;;6083069;28;20336;-66
2022/01/20 20:37:45;;;;;;;6.43;2.90;;;;;;;;;;6082102;28;20240;-66
2022/01/20 20:41:06;;;;;;;3.80;2.23;;;;;;;;;;6087769;29;20623;-66
2022/01/20 20:44:26;;;;;;;4.53;2.43;;;;;;;;;;6091040;29;20330;-66
2022/01/20 20:47:49;;;;;;;4.77;2.00;;;;;;;;;;6090779;28;20228;-67
2022/01/20 20:51:09;;;;;;;4.67;2.13;;;;;;;;;;6088841;28;20221;-66
2022/01/20 20:54:31;;;;;;;6.23;2.03;;;;;;;;;;6089692;28;20229;-67
2022/01/20 20:57:51;;;;;;;3.17;1.73;;;;;;;;;;6092228;29;20240;-65
2022/01/20 21:01:11;;;;;;;4.60;2.07;;;;;;;;;;6082687;29;20221;-66
2022/01/20 21:04:33;;;;;;;2.90;1.80;;;;;;;;;;6090825;29;20666;-66
2022/01/20 21:07:54;;;;;;;4.73;2.00;;;;;;;;;;6094085;28;20237;-66